createdAt,value
2022-08-18T00:01:13.381Z,96396.19
2022-08-18T00:03:55.568Z,96396.78
2022-08-18T00:06:27.900Z,96400.47
2022-08-18T00:08:57.133Z,96397.13
2022-08-18T00:11:26.664Z,96401.66
2022-08-18T00:13:54.568Z,96401.50
2022-08-18T00:16:22.588Z,96393.78
2022-08-18T00:18:50.616Z,96394.34
2022-08-18T00:21:18.996Z,96378.91
2022-08-18T00:23:46.928Z,96382.78
2022-08-18T00:26:14.815Z,96376.34
2022-08-18T00:28:44.077Z,96369.56
2022-08-18T00:31:11.968Z,96367.75
2022-08-18T00:33:39.875Z,96364.59
2022-08-18T00:36:07.820Z,96360.06
2022-08-18T00:38:35.699Z,96360.25
2022-08-18T00:41:03.695Z,96354.06
2022-08-18T00:43:40.731Z,96359.22
2022-08-18T00:46:15.539Z,96361.25
2022-08-18T00:48:48.843Z,96363.09
2022-08-18T00:51:23.818Z,96351.94
2022-08-18T00:53:58.404Z,96341.41
2022-08-18T00:56:31.406Z,96335.66
2022-08-18T00:59:04.839Z,96331.66
2022-08-18T01:01:35.557Z,96331.03
2022-08-18T01:04:08.232Z,96331.66
2022-08-18T01:06:43.193Z,96329.91
2022-08-18T01:09:11.329Z,96338.34
2022-08-18T01:11:41.396Z,96332.69
2022-08-18T01:14:11.189Z,96334.91
2022-08-18T01:16:58.043Z,96334.72
2022-08-18T01:19:45.258Z,96335.53
2022-08-18T01:22:20.557Z,96330.38
2022-08-18T01:25:09.566Z,96334.91
2022-08-18T01:27:37.734Z,96331.94
2022-08-18T01:30:10.460Z,96319.56
2022-08-18T01:32:39.936Z,96325.47
2022-08-18T01:35:10.950Z,96317.75
2022-08-18T01:37:38.840Z,96312.41
2022-08-18T01:41:23.095Z,96312.47
2022-08-18T01:42:58.772Z,96311.47
2022-08-18T01:45:26.624Z,96312.13
2022-08-18T01:47:55.862Z,96299.16
2022-08-18T01:50:23.763Z,96293.81
2022-08-18T01:52:53.725Z,96297.34
2022-08-18T01:55:23.124Z,96300.84
2022-08-18T01:57:52.336Z,96293.72
2022-08-18T02:00:20.965Z,96297.41
2022-08-18T02:02:58.184Z,96293.06
2022-08-18T02:05:34.448Z,96294.44
2022-08-18T02:08:02.384Z,96289.91
2022-08-18T02:10:32.575Z,96293.59
2022-08-18T02:13:00.511Z,96291.94
2022-08-18T02:15:29.007Z,96292.75
2022-08-18T02:17:56.872Z,96293.94
2022-08-18T02:20:25.336Z,96295.34
2022-08-18T02:22:53.291Z,96297.38
2022-08-18T02:25:21.176Z,96298.72
2022-08-18T02:27:50.496Z,96303.25
2022-08-18T02:30:19.970Z,96302.44
2022-08-18T02:32:47.928Z,96307.78
2022-08-18T02:35:15.823Z,96301.78
2022-08-18T02:37:47.697Z,96299.09
2022-08-18T02:40:16.802Z,96291.94
2022-08-18T02:42:45.681Z,96296.13
2022-08-18T02:45:15.595Z,96288.56
2022-08-18T02:47:44.336Z,96289.09
2022-08-18T02:50:13.348Z,96285.97
2022-08-18T02:52:41.380Z,96284.50
2022-08-18T02:55:10.240Z,96277.94
2022-08-18T02:57:43.415Z,96282.81
2022-08-18T03:00:14.671Z,96284.81
2022-08-18T03:02:47.332Z,96276.25
2022-08-18T03:05:15.293Z,96269.13
2022-08-18T03:07:43.571Z,96268.84
2022-08-18T03:10:31.815Z,96267.66
2022-08-18T03:13:00.238Z,96267.28
2022-08-18T03:15:28.199Z,96258.06
2022-08-18T03:17:58.297Z,96255.75
2022-08-18T03:20:31.028Z,96247.03
2022-08-18T03:22:59.342Z,96259.22
2022-08-18T03:25:27.270Z,96247.38
2022-08-18T03:27:55.159Z,96253.00
2022-08-18T03:30:23.598Z,96253.19
2022-08-18T03:32:52.226Z,96247.03
2022-08-18T03:35:21.612Z,96251.19
2022-08-18T03:37:49.434Z,96247.47
2022-08-18T03:40:17.510Z,96243.16
2022-08-18T03:42:45.458Z,96240.47
2022-08-18T03:45:17.715Z,96250.31
2022-08-18T03:47:46.582Z,96243.03
2022-08-18T03:50:14.498Z,96253.91
2022-08-18T03:52:43.744Z,96251.53
2022-08-18T03:55:11.915Z,96261.41
2022-08-18T03:57:39.772Z,96258.06
2022-08-18T04:00:09.986Z,96255.59
2022-08-18T04:02:37.840Z,96258.06
2022-08-18T04:05:07.423Z,96255.38
2022-08-18T04:07:35.372Z,96253.09
2022-08-18T04:10:05.083Z,96247.06
2022-08-18T04:12:32.923Z,96254.28
2022-08-18T04:15:00.781Z,96249.75
2022-08-18T04:17:29.002Z,96249.75
2022-08-18T04:19:57.681Z,96255.28
2022-08-18T04:22:26.386Z,96255.47
2022-08-18T04:24:55.604Z,96254.44
2022-08-18T04:27:27.097Z,96256.13
2022-08-18T04:29:56.673Z,96253.63
2022-08-18T04:32:29.949Z,96261.81
2022-08-18T04:34:58.508Z,96266.34
2022-08-18T04:37:32.365Z,96262.63
2022-08-18T04:40:01.168Z,96269.50
2022-08-18T04:42:30.438Z,96273.19
2022-08-18T04:44:58.773Z,96280.38
2022-08-18T04:47:26.726Z,96279.72
2022-08-18T04:49:54.732Z,96280.53
2022-08-18T04:52:41.977Z,96279.56
2022-08-18T04:55:11.431Z,96288.25
2022-08-18T04:57:42.528Z,96297.09
2022-08-18T05:00:12.553Z,96298.28
2022-08-18T05:02:40.684Z,96303.09
2022-08-18T05:05:09.699Z,96297.38
2022-08-18T05:07:37.575Z,96302.91
2022-08-18T05:10:06.260Z,96302.91
2022-08-18T05:12:34.256Z,96293.88
2022-08-18T05:15:03.621Z,96296.72
2022-08-18T05:17:32.030Z,96292.19
2022-08-18T05:20:00.971Z,96299.22
2022-08-18T05:22:31.551Z,96295.72
2022-08-18T05:25:00.900Z,96298.22
2022-08-18T05:27:33.283Z,96286.69
2022-08-18T05:30:01.145Z,96291.13
2022-08-18T05:32:48.754Z,96280.78
2022-08-18T05:35:23.265Z,96273.22
2022-08-18T05:38:21.081Z,96269.00
2022-08-18T05:41:03.576Z,96270.84
2022-08-18T05:43:31.737Z,96273.69
2022-08-18T05:46:02.563Z,96259.84
2022-08-18T05:48:32.153Z,96259.28
2022-08-18T05:51:04.736Z,96255.91
2022-08-18T05:53:47.422Z,96259.25
2022-08-18T05:56:35.707Z,96254.72
2022-08-18T05:59:04.609Z,96264.88
2022-08-18T06:01:41.388Z,96268.84
2022-08-18T06:04:27.165Z,96274.31
2022-08-18T06:06:57.784Z,96274.78
2022-08-18T06:09:29.836Z,96283.75
2022-08-18T06:12:09.053Z,96272.03
2022-08-18T06:14:39.267Z,96274.81
2022-08-18T06:17:19.363Z,96274.63
2022-08-18T06:19:58.275Z,96274.72
2022-08-18T06:22:33.905Z,96285.28
2022-08-18T06:25:08.379Z,96302.94
2022-08-18T06:27:51.141Z,96310.44
2022-08-18T06:30:25.448Z,96309.03
2022-08-18T06:33:11.308Z,96295.91
2022-08-18T06:35:46.903Z,96292.50
2022-08-18T06:38:45.608Z,96289.44
2022-08-18T06:41:37.968Z,96287.97
2022-08-18T06:44:08.698Z,96283.63
2022-08-18T06:46:48.188Z,96262.81
2022-08-18T06:49:29.348Z,96263.28
2022-08-18T06:51:58.593Z,96273.91
2022-08-18T06:54:29.569Z,96272.31
2022-08-18T06:56:59.124Z,96272.59
2022-08-18T06:59:30.932Z,96274.50
2022-08-18T07:02:02.602Z,96290.69
2022-08-18T07:05:01.368Z,96302.50
2022-08-18T07:07:39.597Z,96304.34
2022-08-18T07:10:29.059Z,96315.09
2022-08-18T07:13:16.496Z,96321.75
2022-08-18T07:15:45.428Z,96332.66
2022-08-18T07:18:14.314Z,96339.53
2022-08-18T07:20:45.168Z,96344.72
2022-08-18T07:23:25.753Z,96348.03
2022-08-18T07:26:02.874Z,96350.91
2022-08-18T07:28:34.232Z,96350.53
2022-08-18T07:31:17.803Z,96351.72
2022-08-18T07:33:51.777Z,96350.25
2022-08-18T07:36:24.326Z,96344.88
2022-08-18T07:38:59.497Z,96339.69
2022-08-18T07:41:33.028Z,96344.72
2022-08-18T07:44:13.983Z,96340.16
2022-08-18T07:46:48.718Z,96342.84
2022-08-18T07:49:22.315Z,96348.56
2022-08-18T07:51:57.819Z,96356.25
2022-08-18T07:54:50.102Z,96352.28
2022-08-18T07:57:27.970Z,96354.31
2022-08-18T08:00:04.770Z,96344.59
2022-08-18T08:02:55.094Z,96336.84
2022-08-18T08:05:40.887Z,96331.94
2022-08-18T08:08:26.175Z,96311.75
2022-08-18T08:11:10.867Z,96301.50
2022-08-18T08:17:32.531Z,96321.47
2022-08-18T08:20:17.387Z,96327.56
2022-08-18T08:23:03.384Z,96326.78
2022-08-18T08:25:53.123Z,96312.44
2022-08-18T08:28:39.371Z,96331.22
2022-08-18T08:31:35.883Z,96325.94
2022-08-18T08:34:07.840Z,96322.78
2022-08-18T08:36:40.188Z,96326.19
2022-08-18T08:39:19.007Z,96315.53
2022-08-18T08:41:51.382Z,96322.72
2022-08-18T08:44:25.942Z,96327.75
2022-08-18T08:47:00.021Z,96317.09
2022-08-18T08:49:36.995Z,96332.06
2022-08-18T08:52:10.211Z,96310.56
2022-08-18T08:54:46.766Z,96314.94
2022-08-18T08:57:16.856Z,96329.53
2022-08-18T08:59:49.908Z,96327.41
2022-08-18T09:02:48.122Z,96311.63
2022-08-18T09:05:21.198Z,96300.13
2022-08-18T09:08:17.298Z,96282.19
2022-08-18T09:11:07.909Z,96272.66
2022-08-18T09:14:25.832Z,96258.28
2022-08-18T09:17:17.324Z,96257.28
2022-08-18T09:20:09.333Z,96257.63
2022-08-18T09:22:47.900Z,96262.78
2022-08-18T09:25:34.739Z,96258.31
2022-08-18T09:28:12.347Z,96266.00
2022-08-18T09:30:47.448Z,96264.34
2022-08-18T09:33:34.769Z,96270.81
2022-08-18T09:36:25.634Z,96280.72
2022-08-18T09:39:18.393Z,96275.44
2022-08-18T09:41:52.733Z,96300.09
2022-08-18T09:45:01.459Z,96296.72
2022-08-18T09:48:10.088Z,96296.84
2022-08-18T09:51:01.628Z,96289.59
2022-08-18T09:53:38.239Z,96303.66
2022-08-18T09:56:08.116Z,96312.41
2022-08-18T09:58:58.685Z,96317.00
2022-08-18T10:01:42.496Z,96310.81
2022-08-18T10:04:32.175Z,96314.34
2022-08-18T10:07:38.742Z,96296.16
2022-08-18T10:11:01.118Z,96294.97
2022-08-18T10:13:24.707Z,96286.28
2022-08-18T10:16:16.650Z,96275.50
2022-08-18T10:19:02.343Z,96280.06
2022-08-18T10:21:53.737Z,96274.03
2022-08-18T10:24:36.042Z,96275.75
2022-08-18T10:27:09.928Z,96262.03
2022-08-18T10:29:53.861Z,96248.19
2022-08-18T10:32:38.975Z,96228.31
2022-08-18T10:35:38.168Z,96228.09
2022-08-18T10:38:12.949Z,96217.13
2022-08-18T10:40:57.116Z,96211.13
2022-08-18T10:43:45.731Z,96231.44
2022-08-18T10:46:25.626Z,96233.50
2022-08-18T10:49:17.395Z,96243.44
2022-08-18T10:52:01.435Z,96221.91
2022-08-18T10:54:51.164Z,96227.09
2022-08-18T10:57:29.732Z,96212.56
2022-08-18T11:00:03.627Z,96218.56
2022-08-18T11:03:02.488Z,96219.41
2022-08-18T11:05:36.675Z,96222.91
2022-08-18T11:08:16.130Z,96223.78
2022-08-18T11:11:05.923Z,96223.34
2022-08-18T11:13:57.957Z,96220.41
2022-08-18T11:16:38.797Z,96231.81
2022-08-18T11:19:12.202Z,96228.72
2022-08-18T11:21:43.919Z,96225.59
2022-08-18T11:24:16.371Z,96238.06
2022-08-18T11:26:52.658Z,96243.22
2022-08-18T11:29:32.626Z,96232.88
2022-08-18T11:32:05.252Z,96225.78
2022-08-18T11:34:52.074Z,96213.56
2022-08-18T11:37:26.964Z,96212.50
2022-08-18T11:39:58.907Z,96213.31
2022-08-18T11:42:33.637Z,96212.47
2022-08-18T11:45:15.993Z,96216.44
2022-08-18T11:48:03.217Z,96211.25
2022-08-18T11:50:34.991Z,96206.69
2022-08-18T11:53:18.859Z,96192.38
2022-08-18T11:56:13.282Z,96194.44
2022-08-18T11:58:46.029Z,96191.94
2022-08-18T12:04:37.426Z,96177.63
2022-08-18T12:07:09.310Z,96174.13
2022-08-18T12:12:31.455Z,96169.13
2022-08-18T12:15:10.487Z,96169.91
2022-08-18T12:17:52.162Z,96169.69
2022-08-18T12:20:22.150Z,96179.22
2022-08-18T12:22:50.839Z,96181.69
2022-08-18T12:28:10.916Z,96177.34
2022-08-18T12:30:42.182Z,96179.13
2022-08-18T12:35:59.862Z,96161.59
2022-08-18T12:38:28.203Z,96157.38
2022-08-18T12:40:57.084Z,96159.50
2022-08-18T12:43:24.949Z,96164.50
2022-08-18T12:46:00.882Z,96160.75
2022-08-18T12:48:31.623Z,96161.38
2022-08-18T12:51:00.962Z,96152.06
2022-08-18T12:53:58.517Z,96149.69
2022-08-18T12:56:25.436Z,96140.72
2022-08-18T12:58:54.760Z,96142.41
2022-08-18T13:01:23.467Z,96147.97
2022-08-18T13:04:10.933Z,96128.03
2022-08-18T13:06:59.463Z,96116.38
2022-08-18T13:09:42.976Z,96114.69
2022-08-18T13:12:19.664Z,96102.78
2022-08-18T13:14:49.775Z,96104.78
2022-08-18T13:17:30.589Z,96097.47
2022-08-18T13:20:06.176Z,96082.03
2022-08-18T13:22:35.907Z,96090.06
2022-08-18T13:25:05.223Z,96081.53
2022-08-18T13:27:35.348Z,96089.91
2022-08-18T13:30:16.853Z,96099.44
2022-08-18T13:33:00.351Z,96091.31
2022-08-18T13:35:44.167Z,96087.44
2022-08-18T13:38:14.482Z,96100.19
2022-08-18T13:40:46.869Z,96103.09
2022-08-18T13:43:15.803Z,96098.41
2022-08-18T13:45:48.132Z,96105.06
2022-08-18T13:48:21.481Z,96100.09
2022-08-18T13:50:52.270Z,96089.47
2022-08-18T13:53:21.805Z,96093.34
2022-08-18T13:55:50.401Z,96085.59
2022-08-18T13:58:20.874Z,96091.41
2022-08-18T14:00:54.001Z,96092.28
2022-08-18T14:03:38.520Z,96089.28
2022-08-18T14:06:13.333Z,96086.56
2022-08-18T14:08:42.241Z,96100.28
2022-08-18T14:11:10.648Z,96099.94
2022-08-18T14:13:43.871Z,96105.34
2022-08-18T14:16:16.267Z,96105.03
2022-08-18T14:19:09.455Z,96106.91
2022-08-18T14:22:00.711Z,96105.47
2022-08-18T14:24:48.915Z,96098.59
2022-08-18T14:27:17.479Z,96096.81
2022-08-18T14:29:47.947Z,96107.75
2022-08-18T14:32:28.600Z,96100.16
2022-08-18T14:35:00.516Z,96098.13
2022-08-18T14:37:31.339Z,96088.69
2022-08-18T14:40:02.535Z,96100.31
2022-08-18T14:42:33.038Z,96088.75
2022-08-18T14:45:18.100Z,96105.72
2022-08-18T14:48:06.521Z,96099.03
2022-08-18T14:50:35.267Z,96102.19
2022-08-18T14:53:04.783Z,96104.81
2022-08-18T14:55:32.838Z,96097.53
2022-08-18T14:58:02.528Z,96104.03
2022-08-18T15:00:30.573Z,96096.25
2022-08-18T15:03:00.232Z,96105.78
2022-08-18T15:05:33.717Z,96106.94
2022-08-18T15:08:03.700Z,96109.16
2022-08-18T15:10:34.220Z,96111.06
2022-08-18T15:13:03.694Z,96109.31
2022-08-18T15:15:42.226Z,96101.19
2022-08-18T15:18:22.593Z,96104.91
2022-08-18T15:21:10.346Z,96101.81
2022-08-18T15:24:05.081Z,96109.84
2022-08-18T15:26:44.333Z,96097.75
2022-08-18T15:29:15.011Z,96097.81
2022-08-18T15:31:50.804Z,96100.06
2022-08-18T15:34:20.575Z,96093.16
2022-08-18T15:36:49.425Z,96100.59
2022-08-18T15:39:17.875Z,96094.81
2022-08-18T15:41:49.325Z,96099.16
2022-08-18T15:44:19.174Z,96102.13
2022-08-18T15:46:53.025Z,96091.75
2022-08-18T15:49:23.885Z,96095.50
2022-08-18T15:51:52.493Z,96089.09
2022-08-18T15:54:20.787Z,96086.19
2022-08-18T15:56:57.794Z,96085.22
2022-08-18T15:59:33.068Z,96074.63
2022-08-18T16:02:11.460Z,96074.88
2022-08-18T16:04:41.293Z,96073.84
2022-08-18T16:07:11.034Z,96079.09
2022-08-18T16:09:38.974Z,96080.88
2022-08-18T16:12:11.244Z,96079.69
2022-08-18T16:14:41.539Z,96075.78
2022-08-18T16:17:23.482Z,96073.97
2022-08-18T16:19:51.987Z,96081.94
2022-08-18T16:22:19.961Z,96081.66
2022-08-18T16:24:54.610Z,96083.00
2022-08-18T16:27:24.961Z,96080.50
2022-08-18T16:29:52.866Z,96084.47
2022-08-18T16:32:20.703Z,96087.63
2022-08-18T16:34:48.621Z,96103.50
2022-08-18T16:39:49.509Z,96108.06
2022-08-18T16:42:18.162Z,96113.94
2022-08-18T16:44:47.515Z,96106.75
2022-08-18T16:47:17.603Z,96109.31
2022-08-18T16:49:48.516Z,96106.00
2022-08-18T16:52:16.747Z,96109.56
2022-08-18T16:54:46.319Z,96107.50
2022-08-18T16:57:37.410Z,96113.38
2022-08-18T17:00:41.284Z,96118.31
2022-08-18T17:03:27.361Z,96111.22
2022-08-18T17:06:00.835Z,96099.69
2022-08-18T17:08:29.499Z,96102.13
2022-08-18T17:10:57.868Z,96107.97
2022-08-18T17:13:25.741Z,96098.81
2022-08-18T17:15:54.978Z,96092.59
2022-08-18T17:18:24.354Z,96094.28
2022-08-18T17:20:52.734Z,96088.31
2022-08-18T17:23:23.979Z,96100.16
2022-08-18T17:25:52.523Z,96094.56
2022-08-18T17:28:26.289Z,96093.94
2022-08-18T17:30:55.685Z,96094.63
2022-08-18T17:33:28.904Z,96105.59
2022-08-18T17:36:02.359Z,96108.50
2022-08-18T17:38:36.309Z,96112.25
2022-08-18T17:41:06.251Z,96108.13
2022-08-18T17:43:46.144Z,96108.75
2022-08-18T17:46:27.365Z,96115.59
2022-08-18T17:49:02.154Z,96106.47
2022-08-18T17:51:34.673Z,96108.13
2022-08-18T17:54:10.224Z,96106.06
2022-08-18T17:56:43.387Z,96110.22
2022-08-18T18:02:18.283Z,96110.22
2022-08-18T18:04:59.422Z,96118.06
2022-08-18T18:07:30.141Z,96122.63
2022-08-18T18:10:01.671Z,96115.59
2022-08-18T18:12:32.103Z,96123.06
2022-08-18T18:15:02.116Z,96125.13
2022-08-18T18:17:37.598Z,96118.91
2022-08-18T18:20:17.806Z,96127.63
2022-08-18T18:22:48.576Z,96131.97
2022-08-18T18:25:34.815Z,96133.00
2022-08-18T18:28:02.893Z,96134.25
2022-08-18T18:30:34.863Z,96136.94
2022-08-18T18:33:14.099Z,96140.84
2022-08-18T18:35:54.012Z,96139.19
2022-08-18T18:38:33.457Z,96145.41
2022-08-18T18:41:03.806Z,96151.22
2022-08-18T18:43:38.812Z,96149.53
2022-08-18T18:46:23.739Z,96150.38
2022-08-18T18:49:07.506Z,96154.91
2022-08-18T18:51:43.693Z,96152.22
2022-08-18T18:54:23.596Z,96154.28
2022-08-18T18:56:56.278Z,96154.06
2022-08-18T18:59:38.725Z,96147.88
2022-08-18T19:02:33.707Z,96139.56
2022-08-18T19:05:17.631Z,96146.16
2022-08-18T19:08:02.187Z,96157.31
2022-08-18T19:10:36.978Z,96155.69
2022-08-18T19:13:25.121Z,96156.56
2022-08-18T19:16:23.849Z,96152.56
2022-08-18T19:19:36.279Z,96150.69
2022-08-18T19:22:04.423Z,96155.88
2022-08-18T19:24:39.173Z,96155.44
2022-08-18T19:27:12.380Z,96169.69
2022-08-18T19:29:44.604Z,96162.25
2022-08-18T19:32:16.848Z,96163.72
2022-08-18T19:34:52.642Z,96157.69
2022-08-18T19:37:32.363Z,96155.81
2022-08-18T19:40:09.317Z,96162.44
2022-08-18T19:42:45.143Z,96160.16
2022-08-18T19:45:23.457Z,96164.06
2022-08-18T19:47:57.374Z,96170.91
2022-08-18T19:50:32.186Z,96169.66
2022-08-18T19:53:32.794Z,96176.25
2022-08-18T19:56:27.571Z,96180.19
2022-08-18T19:59:19.588Z,96179.13
2022-08-18T20:02:00.436Z,96180.31
2022-08-18T20:04:47.635Z,96184.47
2022-08-18T20:07:37.910Z,96183.22
2022-08-18T20:10:28.118Z,96191.69
2022-08-18T20:13:12.490Z,96184.03
2022-08-18T20:16:00.042Z,96182.16
2022-08-18T20:18:34.543Z,96189.81
2022-08-18T20:21:33.985Z,96190.41
2022-08-18T20:24:30.436Z,96187.72
2022-08-18T20:27:16.309Z,96187.53
2022-08-18T20:29:47.395Z,96198.47
2022-08-18T20:32:21.191Z,96200.47
2022-08-18T20:34:52.261Z,96211.44
2022-08-18T20:37:25.541Z,96205.66
2022-08-18T20:39:56.638Z,96202.16
2022-08-18T20:42:55.819Z,96200.06
2022-08-18T20:45:37.203Z,96188.44
2022-08-18T20:48:32.632Z,96194.69
2022-08-18T20:51:10.621Z,96189.03
2022-08-18T20:54:03.318Z,96184.06
2022-08-18T20:56:43.290Z,96184.53
2022-08-18T20:59:19.546Z,96188.22
2022-08-18T21:01:58.901Z,96180.75
2022-08-18T21:04:42.836Z,96180.56
2022-08-18T21:07:18.475Z,96184.22
2022-08-18T21:10:12.777Z,96192.53
2022-08-18T21:12:51.849Z,96194.56
2022-08-18T21:15:24.271Z,96201.78
2022-08-18T21:17:58.820Z,96202.59
2022-08-18T21:20:28.472Z,96203.66
2022-08-18T21:23:09.965Z,96206.94
2022-08-18T21:25:42.017Z,96207.34
2022-08-18T21:28:09.931Z,96218.50
2022-08-18T21:30:39.388Z,96223.22
2022-08-18T21:33:20.123Z,96225.50
2022-08-18T21:35:48.419Z,96221.81
2022-08-18T21:38:16.434Z,96223.22
2022-08-18T21:40:47.917Z,96218.03
2022-08-18T21:43:35.783Z,96216.38
2022-08-18T21:46:05.192Z,96219.06
2022-08-18T21:48:36.076Z,96225.66
2022-08-18T21:51:03.968Z,96237.06
2022-08-18T21:53:33.778Z,96241.16
2022-08-18T21:56:02.621Z,96243.00
2022-08-18T21:58:38.869Z,96248.09
2022-08-18T22:01:14.004Z,96251.00
2022-08-18T22:03:59.465Z,96243.59
2022-08-18T22:06:35.997Z,96241.28
2022-08-18T22:09:29.579Z,96239.88
2022-08-18T22:12:37.676Z,96245.25
2022-08-18T22:15:11.730Z,96248.91
2022-08-18T22:17:52.812Z,96247.50
2022-08-18T22:20:46.679Z,96243.97
2022-08-18T22:23:54.934Z,96229.91
2022-08-18T22:26:27.284Z,96231.97
2022-08-18T22:29:03.926Z,96221.56
2022-08-18T22:31:35.579Z,96219.75
2022-08-18T22:34:07.446Z,96226.59
2022-08-18T22:36:38.052Z,96230.09
2022-08-18T22:39:10.264Z,96228.97
2022-08-18T22:41:39.200Z,96230.22
2022-08-18T22:44:08.099Z,96235.56
2022-08-18T22:46:36.957Z,96246.03
2022-08-18T22:49:06.489Z,96248.13
2022-08-18T22:51:37.096Z,96257.03
2022-08-18T22:54:08.347Z,96258.22
2022-08-18T22:56:37.875Z,96255.19
2022-08-18T22:59:13.979Z,96245.28
2022-08-18T23:01:50.078Z,96249.59
2022-08-18T23:04:22.226Z,96249.00
2022-08-18T23:06:52.573Z,96253.84
2022-08-18T23:09:23.526Z,96253.84
2022-08-18T23:11:52.196Z,96255.28
2022-08-18T23:14:20.340Z,96247.06
2022-08-18T23:16:48.401Z,96241.50
2022-08-18T23:19:17.531Z,96242.66
2022-08-18T23:21:48.459Z,96251.59
2022-08-18T23:24:22.492Z,96253.47
2022-08-18T23:26:50.875Z,96256.50
2022-08-18T23:29:19.825Z,96254.47
2022-08-18T23:31:50.074Z,96257.34
2022-08-18T23:34:19.275Z,96256.44
2022-08-18T23:36:55.481Z,96250.50
2022-08-18T23:39:23.884Z,96260.03
2022-08-18T23:41:53.030Z,96256.44
2022-08-18T23:44:21.254Z,96252.53
2022-08-18T23:46:51.886Z,96252.75
2022-08-18T23:49:19.875Z,96243.50
2022-08-18T23:51:54.460Z,96247.00
2022-08-18T23:54:24.426Z,96241.63
2022-08-18T23:56:52.367Z,96244.47
2022-08-18T23:59:22.619Z,96246.09
